Data for 08/04/2006

Time Sea-Level Adjusted Pressure Absolute Pressure Temperature Relative Humidity Dew Point   
(mb) (inHg) (mb) (inHg) (C) (F) (%) (C) (F)
00:05 1018 30.06 847 25.01 18.4 65.2 33 2.1 35.7
00:10 1018 30.06 847 25.01 18.6 65.4 40 4.8 40.6
00:15 1018 30.06 847 25.01 17.9 64.2 37 3.3 37.9
00:20 1018 30.06 847 25.01 17.4 63.3 38 3.2 37.7
00:25 1018 30.06 847 25.01 17.6 63.7 36 2.5 36.4
00:30 1018 30.06 847 25.01 17.6 63.7 36 2.4 36.4
00:35 1018 30.06 847 25.01 18 64.3 35 2.3 36.2
00:40 1018 30.06 847 25.01 17.6 63.7 37 2.9 37.2
00:45 1018 30.06 847 25.01 17.3 63.1 37 2.7 36.8
00:50 1018 30.06 847 25.01 17.1 62.8 38 2.7 36.9
00:55 1018 30.06 847 25.01 17.2 62.9 39 3.1 37.6
01:00 1018 30.06 847 25.01 16.9 62.3 40 3.2 37.7
01:05 1018 30.06 847 25.01 16.4 61.5 41 3.3 38
01:10 1018 30.06 847 25.01 16.2 61.1 43 3.7 38.6
01:15 1018 30.06 847 25.01 15.7 60.3 44 3.5 38.2
01:20 1018 30.06 847 25.01 15.5 59.9 45 3.8 38.8
01:25 1018 30.06 847 25.01 16.3 61.3 39 2.2 36
01:30 1018 30.06 847 25.01 16.2 61.1 42 3.2 37.8
01:35 1018 30.06 847 25.01 15.5 60 45 3.7 38.6
01:40 1018 30.06 847 25.01 15 59 45 3.2 37.7
01:45 1018 30.06 847 25.01 15.1 59.2 44 3 37.4
01:50 1018 30.06 847 25.01 15 59 46 3.5 38.4
01:55 1018 30.06 847 25.01 14.9 58.7 44 2.7 36.8
02:00 1018 30.06 847 25.01 15.4 59.6 41 2.4 36.3
02:05 1018 30.06 847 25.01 16 60.7 48 4.9 40.9
02:10 1018 30.06 848 25.04 16.2 61.2 40 2.7 36.9
02:15 1018 30.06 848 25.04 16.1 60.9 40 2.5 36.5
02:20 1018 30.06 848 25.04 16.3 61.3 42 3.5 38.4
02:25 1018 30.06 847 25.01 15.9 60.5 43 3.3 37.9
02:30 1018 30.06 847 25.01 15.7 60.3 42 2.8 37
02:35 1018 30.06 847 25.01 16.1 61 41 3.1 37.6
02:40 1018 30.06 847 25.01 15.9 60.7 41 2.9 37.3
02:45 1018 30.06 847 25.01 15.9 60.6 42 3.3 37.9
02:50 1018 30.06 847 25.01 15.8 60.4 43 3.3 38
02:55 1018 30.06 847 25.01 15.1 59.2 48 4.2 39.5
03:00 1018 30.06 847 25.01 14.1 57.5 50 3.9 39
03:05 1018 30.06 847 25.01 14.2 57.6 48 3.4 38.1
03:10 1018 30.06 847 25.01 14.5 58 47 3.2 37.8
03:15 1018 30.06 847 25.01 14.9 58.7 45 3.1 37.5
03:20 1018 30.06 847 25.01 15.2 59.4 43 3 37.3
03:25 1018 30.06 847 25.01 15.4 59.7 43 2.9 37.2
03:30 1018 30.06 847 25.01 15.2 59.4 44 3.1 37.6
03:35 1018 30.06 847 25.01 14.8 58.6 46 3.3 38
03:40 1018 30.06 848 25.04 14.3 57.7 47 3.3 38
03:45 1018 30.06 848 25.04 14.1 57.4 54 5 40.9
03:50 1018 30.06 847 25.01 14 57.2 48 3.3 37.9
03:55 1018 30.06 847 25.01 13.8 56.9 49 3.2 37.8
04:00 1018 30.06 847 25.01 13.6 56.5 52 4 39.2
04:05 1018 30.06 848 25.04 13.6 56.5 49 3.2 37.7
04:10 1018 30.06 848 25.04 13.6 56.5 49 3.1 37.6
04:15 1018 30.06 848 25.04 13.9 57 53 4.5 40.1
04:20 1018 30.06 848 25.04 14.1 57.3 47 3 37.5
04:25 1018 30.06 848 25.04 13.8 56.8 49 3.4 38.2
04:30 1018 30.06 848 25.04 13.6 56.5 55 4.9 40.7
04:35 1018 30.06 848 25.04 13.6 56.5 49 3.3 37.9
04:40 1018 30.06 848 25.04 13.7 56.7 49 3.2 37.7
04:45 1018 30.06 848 25.04 13.8 56.8 50 3.6 38.4
04:50 1018 30.06 848 25.04 13.5 56.4 50 3.4 38.2
04:55 1018 30.06 848 25.04 13.3 56 50 3.2 37.8
05:00 1018 30.06 848 25.04 13.5 56.2 53 4.2 39.6
05:05 1018 30.06 848 25.04 13.5 56.3 50 3.5 38.3
05:10 1018 30.06 848 25.04 13.4 56 51 3.5 38.3
05:15 1018 30.06 848 25.04 13.2 55.8 57 5 40.9
05:20 1018 30.06 848 25.04 13.4 56.1 50 3.3 38
05:25 1018 30.06 848 25.04 13.5 56.3 50 3.3 37.9
05:30 1018 30.06 848 25.04 13.6 56.5 56 5.2 41.4
05:35 1018 30.06 848 25.04 13.7 56.7 50 3.4 38.2
05:40 1018 30.06 848 25.04 13.7 56.7 49 3.3 37.9
05:45 1018 30.06 848 25.04 13.8 56.8 50 3.6 38.5
05:50 1018 30.06 848 25.04 13.8 56.8 49 3.4 38.1
05:55 1018 30.06 848 25.04 13.5 56.4 49 3.2 37.8
06:00 1019 30.09 848 25.04 13.6 56.5 49 3.3 38
06:05 1019 30.09 848 25.04 13.6 56.5 50 3.5 38.2
06:10 1019 30.09 848 25.04 13.8 56.9 48 3.1 37.6
06:15 1019 30.09 848 25.04 14.4 57.8 48 3.5 38.3
06:20 1019 30.09 848 25.04 14.4 57.8 46 3.1 37.6
06:25 1019 30.09 848 25.04 14.4 58 45 2.8 37
06:30 1019 30.09 848 25.04 14.6 58.3 47 3.4 38.1
06:35 1019 30.09 848 25.04 14.3 57.8 49 3.7 38.7
06:40 1019 30.09 848 25.04 13.8 56.8 50 3.5 38.4
06:45 1019 30.09 848 25.04 13.8 56.8 53 4.3 39.8
06:50 1019 30.09 848 25.04 13.8 56.8 50 3.6 38.4
06:55 1019 30.09 848 25.04 13.9 57.1 48 3.3 37.9
07:00 1019 30.09 848 25.04 14.5 58 47 3.4 38.1
07:05 1019 30.09 848 25.04 14.9 58.8 46 3.5 38.3
07:10 1019 30.09 848 25.04 14.8 58.6 48 3.9 39
07:15 1019 30.09 848 25.04 14.4 58 50 4.1 39.4
07:20 1019 30.09 848 25.04 14.2 57.5 50 4.1 39.4
07:25 1019 30.09 848 25.04 14 57.2 50 3.9 39
07:30 1019 30.09 848 25.04 14.5 58 52 4.9 40.8
07:35 1019 30.09 848 25.04 15 59 46 3.4 38.1
07:40 1019 30.09 848 25.04 15.3 59.5 46 3.8 38.8
07:45 1019 30.09 848 25.04 15.7 60.2 46 4.3 39.8
07:50 1019 30.09 848 25.04 16 60.8 45 4.1 39.3
07:55 1019 30.09 848 25.04 16.4 61.4 45 4.5 40.1
08:00 1019 30.09 848 25.04 16.9 62.4 43 4.5 40.1
08:05 1019 30.09 848 25.04 17.1 62.7 43 4.3 39.8
08:10 1019 30.09 848 25.04 17.4 63.3 43 4.7 40.4
08:15 1019 30.09 848 25.04 17.5 63.6 43 5.1 41.1
08:20 1019 30.09 848 25.04 17.7 63.9 43 5.1 41.1
08:25 1019 30.09 848 25.04 18 64.4 43 5.2 41.4
08:30 1019 30.09 848 25.04 18.8 65.8 39 4.7 40.5
08:35 1019 30.09 848 25.04 19.3 66.7 38 4.6 40.3
08:40 1019 30.09 848 25.04 19.5 67.1 38 4.9 40.8
08:45 1019 30.09 848 25.04 19.7 67.5 37 4.8 40.6
08:50 1019 30.09 848 25.04 20 67.9 37 5 41.1
08:55 1019 30.09 848 25.04 20.3 68.5 35 4.5 40
09:00 1019 30.09 848 25.04 20.5 69 35 4.6 40.2
09:05 1019 30.09 848 25.04 20.9 69.6 35 4.9 40.8
09:10 1019 30.09 848 25.04 20.9 69.6 35 5 41.1
09:15 1019 30.09 848 25.04 20.7 69.3 35 5 41
09:20 1019 30.09 848 25.04 20.4 68.6 36 4.9 40.9
09:25 1019 30.09 848 25.04 20.9 69.5 35 5 41
09:30 1019 30.09 848 25.04 21.7 71 33 4.8 40.7
09:35 1019 30.09 848 25.04 21.9 71.5 32 4.7 40.5
09:40 1019 30.09 848 25.04 22.1 71.8 32 5.1 41.1
09:45 1019 30.09 848 25.04 22.2 71.9 31 4.5 40.1
09:50 1019 30.09 848 25.04 22.6 72.7 31 5 40.9
09:55 1019 30.09 848 25.04 23.3 74 30 4.8 40.6
10:00 1019 30.09 848 25.04 22.9 73.3 29 4.1 39.4
10:05 1019 30.09 848 25.04 23.4 74.1 27 3.5 38.4
10:10 1019 30.09 848 25.04 23.5 74.3 28 4.3 39.8
10:15 1019 30.09 848 25.04 23.6 74.4 28 4 39.3
10:20 1018 30.06 848 25.04 23.7 74.6 28 4.5 40.1
10:25 1018 30.06 848 25.04 23.5 74.3 28 4.2 39.5
10:30 1018 30.06 848 25.04 23.1 73.5 29 4.1 39.3
10:35 1018 30.06 848 25.04 23.2 73.8 28 3.9 39
10:40 1018 30.06 848 25.04 23.6 74.6 26 3.5 38.2
10:45 1018 30.06 847 25.01 24.5 76.2 26 4 39.2
10:50 1018 30.06 847 25.01 23.9 75 26 3.5 38.4
10:55 1018 30.06 847 25.01 24 75.3 26 3.5 38.3
11:00 1018 30.06 847 25.01 24.9 76.8 25 3.6 38.6
11:05 1018 30.06 847 25.01 24.9 76.8 25 3.8 38.8
11:10 1018 30.06 847 25.01 25 77 25 3.7 38.6
11:15 1018 30.06 847 25.01 25.3 77.6 25 3.9 39.1
11:20 1018 30.06 847 25.01 25 77 25 3.7 38.6
11:25 1018 30.06 847 25.01 25 77 26 4.4 39.8
11:30 1018 30.06 847 25.01 25.7 78.2 25 4.6 40.3
11:35 1018 30.06 847 25.01 26.7 80 24 4.4 40
11:40 1018 30.06 847 25.01 26.9 80.4 24 4.7 40.4
11:45 1018 30.06 847 25.01 26.2 79.1 24 4 39.2
11:50 1018 30.06 847 25.01 26.1 78.9 24 3.9 39.1
11:55 1018 30.06 847 25.01 26.3 79.3 23 3.9 39
12:00 1018 30.06 847 25.01 26.9 80.4 22 3.5 38.3
12:05 1018 30.06 847 25.01 26.8 80.2 23 4.2 39.5
12:10 1018 30.06 847 25.01 26.7 80.1 23 3.9 39
12:15 1018 30.06 847 25.01 27.1 80.9 22 3.7 38.7
12:20 1018 30.06 847 25.01 27.5 81.4 22 4.3 39.7
12:25 1018 30.06 847 25.01 28.2 82.8 19 3.1 37.5
12:30 1017 30.03 847 25.01 28.4 83.1 20 3.3 37.9
12:35 1017 30.03 847 25.01 29.1 84.3 20 4.4 39.9
12:40 1017 30.03 846 24.98 28.8 83.9 21 4.7 40.4
12:45 1017 30.03 846 24.98 28.6 83.5 21 4.6 40.2
12:50 1017 30.03 846 24.98 29.1 84.5 19 3.6 38.5
12:55 1017 30.03 846 24.98 29.4 85 19 3.6 38.5
13:00 1017 30.03 846 24.98 29.6 85.4 18 3.2 37.8
13:05 1017 30.03 846 24.98 28.7 83.7 17 2 35.5
13:10 1017 30.03 846 24.98 29.1 84.4 17 2.2 36
13:15 1017 30.03 846 24.98 29.2 84.6 16 1.3 34.3
13:20 1017 30.03 846 24.98 29.2 84.5 17 2 35.6
13:25 1017 30.03 846 24.98 28.2 82.8 18 1.8 35.3
13:30 1016 30 846 24.98 28.3 83 17 1.3 34.3
13:35 1016 30 846 24.98 28.6 83.4 17 1.7 35.1
13:40 1016 30 846 24.98 29.4 84.9 15 0.7 33.3
13:45 1016 30 845 24.95 29.5 85.2 16 1.1 34
13:50 1016 30 845 24.95 29.5 85.1 16 1.1 34
13:55 1016 30 845 24.95 29.6 85.3 15 0.6 33
14:00 1016 30 845 24.95 29.1 84.5 16 1.5 34.7
14:05 1016 30 845 24.95 29.2 84.6 19 3.3 37.9
14:10 1016 30 845 24.95 29.1 84.3 17 2.1 35.7
14:15 1016 30 845 24.95 29 84.1 16 0.8 33.4
14:20 1016 30 845 24.95 29.2 84.5 16 0.9 33.5
14:25 1016 30 845 24.95 29.4 84.8 15 0.7 33.3
14:30 1016 30 845 24.95 29.2 84.6 16 1.1 33.9
14:35 1016 30 845 24.95 27.9 82.2 19 2.5 36.5
14:40 1016 30 845 24.95 27.8 82.1 18 1.7 35.1
14:45 1016 30 845 24.95 27.3 81.1 18 1.3 34.4
14:50 1016 30 845 24.95 27.3 81.2 21 3.1 37.5
14:55 1016 30 845 24.95 27.9 82.2 21 3.9 39.1
15:00 1016 30 845 24.95 27.8 82.1 22 4.6 40.3
15:05 1016 30 845 24.95 27.3 81.2 21 3.6 38.5
15:10 1016 30 845 24.95 27.1 80.8 20 2.5 36.5
15:15 1016 30 845 24.95 27 80.6 22 3.5 38.3
15:20 1016 30 845 24.95 26.5 79.7 35 9.9 49.8
15:25 1015 29.97 845 24.95 25.6 78.1 26 5.2 41.3
15:30 1016 30 845 24.95 24.9 76.7 31 6.8 44.2
15:35 1016 30 845 24.95 25 77 26 4.5 40
15:40 1016 30 845 24.95 24.9 76.8 29 5.8 42.5
15:45 1016 30 845 24.95 25.1 77.1 35 8.9 48
15:50 1016 30 846 24.98 24.8 76.6 26 4.4 40
15:55 1016 30 846 24.98 24.9 76.7 29 5.8 42.4
16:00 1017 30.03 846 24.98 24.2 75.5 31 6.1 43
16:05 1017 30.03 846 24.98 23.7 74.6 26 3.3 38
16:10 1017 30.03 846 24.98 23.8 74.8 28 4.3 39.7
16:15 1017 30.03 846 24.98 23.8 74.8 26 3.6 38.4
16:20 1017 30.03 846 24.98 23.8 74.9 32 6.4 43.5
16:25 1017 30.03 846 24.98 23.5 74.3 28 4.1 39.4
16:30 1017 30.03 846 24.98 23.7 74.6 30 5.3 41.5
16:35 1017 30.03 846 24.98 23.8 74.9 28 4.5 40
16:40 1017 30.03 846 24.98 23.7 74.7 29 4.8 40.6
16:45 1017 30.03 846 24.98 23.5 74.3 30 5 41
16:50 1017 30.03 846 24.98 23.5 74.3 32 5.9 42.6
16:55 1017 30.03 846 24.98 23.4 74.2 31 5.5 41.9
17:00 1016 30 846 24.98 23.7 74.6 28 4.2 39.5
17:05 1016 30 846 24.98 23.8 74.9 29 4.9 40.8
17:10 1016 30 846 24.98 23.9 75 29 4.9 40.7
17:15 1016 30 845 24.95 23.9 75 29 4.9 40.9
17:20 1016 30 845 24.95 24.2 75.6 27 4.5 40.1
17:25 1016 30 845 24.95 24.3 75.7 27 4.4 39.9
17:30 1016 30 845 24.95 24.4 75.9 28 4.8 40.7
17:35 1016 30 845 24.95 24.4 76 26 3.8 38.8
17:40 1016 30 845 24.95 24.7 76.4 26 3.9 39.1
17:45 1016 30 845 24.95 24.6 76.3 26 3.9 39.1
17:50 1016 30 845 24.95 24.7 76.4 25 3.7 38.6
17:55 1016 30 845 24.95 24.7 76.5 25 3.9 38.9
18:00 1016 30 845 24.95 25 77 27 4.8 40.6
18:05 1016 30 845 24.95 25.4 77.7 24 3.5 38.3
18:10 1016 30 845 24.95 25.3 77.6 25 4.1 39.4
18:15 1016 30 845 24.95 25.2 77.4 24 3.7 38.7
18:20 1016 30 845 24.95 25.1 77.3 26 4.6 40.3
18:25 1016 30 845 24.95 25.1 77.2 24 3.4 38.2
18:30 1016 30 845 24.95 25 77 25 3.6 38.5
18:35 1016 30 845 24.95 24.8 76.7 25 3.6 38.5
18:40 1016 30 845 24.95 24.7 76.5 26 3.9 39.1
18:45 1016 30 845 24.95 24.6 76.3 26 4 39.2
18:50 1016 30 845 24.95 24.5 76 26 4.2 39.6
18:55 1016 30 845 24.95 24.4 75.9 29 5.5 41.9
19:00 1016 30 845 24.95 24.5 76.1 27 4.5 40.1
19:05 1016 30 845 24.95 24.6 76.2 26 4.1 39.4
19:10 1016 30 845 24.95 24.6 76.3 27 4.5 40.2
19:15 1016 30 845 24.95 24.5 76.1 27 4.5 40.1
19:20 1016 30 845 24.95 24.5 76.2 27 4.6 40.3
19:25 1016 30 845 24.95 24.7 76.4 27 4.7 40.4
19:30 1016 30 845 24.95 24.5 76.2 27 4.4 40
19:35 1015 29.97 845 24.95 24.4 75.9 27 4.3 39.8
19:40 1015 29.97 845 24.95 24.3 75.7 27 4.5 40.1
19:45 1015 29.97 844 24.92 23.8 74.9 29 5 41.1
19:50 1015 29.97 844 24.92 23.3 74 30 5.2 41.4
19:55 1015 29.97 844 24.92 22.9 73.2 32 5.4 41.7
20:00 1015 29.97 844 24.92 22.5 72.5 33 5.5 41.9
20:05 1015 29.97 845 24.95 22.2 71.9 33 5.3 41.6
20:10 1015 29.97 845 24.95 22 71.6 33 5.3 41.5
20:15 1015 29.97 845 24.95 21.8 71.3 34 5.3 41.5
20:20 1015 29.97 845 24.95 21.7 71 34 5.3 41.5
20:25 1015 29.97 845 24.95 21.4 70.6 35 5.3 41.6
20:30 1016 30 845 24.95 21.3 70.3 35 5.3 41.6
20:35 1016 30 845 24.95 21.1 69.9 35 5.3 41.5
20:40 1016 30 845 24.95 20.9 69.7 36 5.5 41.9
20:45 1016 30 845 24.95 20.7 69.2 37 5.5 42
20:50 1016 30 845 24.95 20.5 68.9 38 5.7 42.2
20:55 1016 30 845 24.95 20.4 68.6 38 5.6 42.1
21:00 1016 30 845 24.95 20.3 68.5 38 5.5 42
21:05 1016 30 845 24.95 20.3 68.5 38 5.6 42.1
21:10 1016 30 845 24.95 20.1 68.2 39 5.9 42.6
21:15 1016 30 845 24.95 20 68 39 5.9 42.5
21:20 1016 30 845 24.95 20 67.9 39 5.8 42.5
21:25 1016 30 845 24.95 19.9 67.9 39 5.8 42.5
21:30 1016 30 845 24.95 19.8 67.7 39 5.7 42.3
21:35 1016 30 846 24.98 19.9 67.9 39 5.7 42.3
21:40 1016 30 846 24.98 19.9 67.8 40 6 42.8
21:45 1016 30 846 24.98 19.7 67.4 41 6.1 43
21:50 1016 30 846 24.98 19.5 67.1 41 6.1 43
21:55 1017 30.03 846 24.98 19.4 66.9 42 6.4 43.6
22:00 1017 30.03 846 24.98 19.2 66.5 43 6.3 43.3
22:05 1017 30.03 846 24.98 19 66.2 43 6.3 43.3
22:10 1017 30.03 846 24.98 19 66.1 43 6.3 43.3
22:15 1017 30.03 846 24.98 19 66.2 42 6.1 43
22:20 1017 30.03 846 24.98 19.2 66.6 42 6.2 43.1
22:25 1017 30.03 846 24.98 19.3 66.7 42 6.1 43.1
22:30 1017 30.03 846 24.98 19.3 66.7 42 6.1 42.9
22:35 1017 30.03 846 24.98 19.3 66.7 42 6.3 43.3
22:40 1017 30.03 846 24.98 19.2 66.5 42 6.2 43.1
22:45 1017 30.03 846 24.98 19.2 66.6 42 6.1 43
22:50 1017 30.03 846 24.98 19.3 66.7 41 6 42.8
22:55 1017 30.03 846 24.98 19.3 66.8 43 6.4 43.6
23:00 1017 30.03 847 25.01 19.2 66.5 43 6.3 43.4
23:05 1017 30.03 847 25.01 19.1 66.4 43 6.2 43.2
23:10 1017 30.03 847 25.01 19.1 66.4 41 5.8 42.4
23:15 1017 30.03 847 25.01 19.2 66.5 43 6.3 43.3
23:20 1017 30.03 847 25.01 19.1 66.3 44 6.5 43.8
23:25 1017 30.03 847 25.01 18.7 65.6 46 6.8 44.3
23:30 1017 30.03 847 25.01 18.5 65.3 45 6.4 43.6
23:35 1017 30.03 847 25.01 18.5 65.2 47 7.2 44.9
23:40 1017 30.03 847 25.01 18.7 65.6 45 6.8 44.2
23:45 1017 30.03 847 25.01 18.2 64.8 46 6.4 43.5
23:50 1017 30.03 846 24.98 18.1 64.6 51 7.8 46.1
23:55 1017 30.03 846 24.98 18 64.5 46 6.4 43.5
24:00 1017 30.03 846 24.98 17.8 64 47 6.3 43.4